sensor_id;sensor_type;location;lat;lon;timestamp;P1;durP1;ratioP1;P2;durP2;ratioP2
6985;SDS011;3533;51.246;6.850;2022-08-21T00:00:25;6.40;;;6.10;;
6985;SDS011;3533;51.246;6.850;2022-08-21T00:02:56;6.10;;;5.80;;
6985;SDS011;3533;51.246;6.850;2022-08-21T00:05:28;6.47;;;6.10;;
6985;SDS011;3533;51.246;6.850;2022-08-21T00:07:55;6.23;;;5.73;;
6985;SDS011;3533;51.246;6.850;2022-08-21T00:10:21;6.00;;;5.80;;
6985;SDS011;3533;51.246;6.850;2022-08-21T00:12:47;6.10;;;5.80;;
6985;SDS011;3533;51.246;6.850;2022-08-21T00:15:16;6.30;;;5.97;;
6985;SDS011;3533;51.246;6.850;2022-08-21T00:17:44;6.63;;;6.23;;
6985;SDS011;3533;51.246;6.850;2022-08-21T00:20:11;5.80;;;5.50;;
6985;SDS011;3533;51.246;6.850;2022-08-21T00:22:39;5.50;;;5.20;;
6985;SDS011;3533;51.246;6.850;2022-08-21T00:25:06;6.10;;;5.77;;
6985;SDS011;3533;51.246;6.850;2022-08-21T00:27:33;6.30;;;6.00;;
6985;SDS011;3533;51.246;6.850;2022-08-21T00:29:59;6.03;;;5.73;;
6985;SDS011;3533;51.246;6.850;2022-08-21T00:32:25;6.00;;;5.60;;
6985;SDS011;3533;51.246;6.850;2022-08-21T00:34:52;6.20;;;5.90;;
6985;SDS011;3533;51.246;6.850;2022-08-21T00:37:19;6.40;;;6.10;;
6985;SDS011;3533;51.246;6.850;2022-08-21T00:39:45;6.60;;;6.30;;
6985;SDS011;3533;51.246;6.850;2022-08-21T00:42:12;8.10;;;5.90;;
6985;SDS011;3533;51.246;6.850;2022-08-21T00:44:44;6.20;;;5.90;;
6985;SDS011;3533;51.246;6.850;2022-08-21T00:47:11;6.93;;;6.50;;
6985;SDS011;3533;51.246;6.850;2022-08-21T00:49:37;6.33;;;6.03;;
6985;SDS011;3533;51.246;6.850;2022-08-21T00:52:04;6.10;;;5.80;;
6985;SDS011;3533;51.246;6.850;2022-08-21T00:54:34;6.60;;;6.20;;
6985;SDS011;3533;51.246;6.850;2022-08-21T00:57:04;6.00;;;5.70;;
6985;SDS011;3533;51.246;6.850;2022-08-21T00:59:34;6.73;;;6.30;;
6985;SDS011;3533;51.246;6.850;2022-08-21T01:02:03;6.07;;;5.77;;
6985;SDS011;3533;51.246;6.850;2022-08-21T01:04:30;6.47;;;6.17;;
6985;SDS011;3533;51.246;6.850;2022-08-21T01:06:56;5.80;;;5.60;;
6985;SDS011;3533;51.246;6.850;2022-08-21T01:09:22;6.33;;;5.93;;
6985;SDS011;3533;51.246;6.850;2022-08-21T01:11:48;5.53;;;5.20;;
6985;SDS011;3533;51.246;6.850;2022-08-21T01:14:14;6.50;;;6.20;;
6985;SDS011;3533;51.246;6.850;2022-08-21T01:16:40;5.90;;;5.60;;
6985;SDS011;3533;51.246;6.850;2022-08-21T01:19:10;5.97;;;5.67;;
6985;SDS011;3533;51.246;6.850;2022-08-21T01:21:36;6.17;;;5.83;;
6985;SDS011;3533;51.246;6.850;2022-08-21T01:24:02;6.13;;;5.83;;
6985;SDS011;3533;51.246;6.850;2022-08-21T01:26:29;6.10;;;5.80;;
6985;SDS011;3533;51.246;6.850;2022-08-21T01:29:00;7.30;;;6.90;;
6985;SDS011;3533;51.246;6.850;2022-08-21T01:31:38;6.17;;;5.80;;
6985;SDS011;3533;51.246;6.850;2022-08-21T01:34:04;5.97;;;5.70;;
6985;SDS011;3533;51.246;6.850;2022-08-21T01:36:31;6.10;;;5.80;;
6985;SDS011;3533;51.246;6.850;2022-08-21T01:38:57;6.27;;;5.97;;
6985;SDS011;3533;51.246;6.850;2022-08-21T01:41:23;6.00;;;5.80;;
6985;SDS011;3533;51.246;6.850;2022-08-21T01:43:48;6.00;;;5.70;;
6985;SDS011;3533;51.246;6.850;2022-08-21T01:46:14;6.40;;;5.80;;
6985;SDS011;3533;51.246;6.850;2022-08-21T01:48:40;6.43;;;6.03;;
6985;SDS011;3533;51.246;6.850;2022-08-21T01:51:06;7.00;;;6.50;;
6985;SDS011;3533;51.246;6.850;2022-08-21T01:53:33;6.47;;;5.90;;
6985;SDS011;3533;51.246;6.850;2022-08-21T01:56:02;6.63;;;6.33;;
6985;SDS011;3533;51.246;6.850;2022-08-21T01:58:31;6.30;;;6.00;;
6985;SDS011;3533;51.246;6.850;2022-08-21T02:00:59;6.33;;;5.97;;
6985;SDS011;3533;51.246;6.850;2022-08-21T02:03:26;6.60;;;6.30;;
6985;SDS011;3533;51.246;6.850;2022-08-21T02:05:55;7.03;;;6.53;;
6985;SDS011;3533;51.246;6.850;2022-08-21T02:08:22;7.50;;;6.90;;
6985;SDS011;3533;51.246;6.850;2022-08-21T02:10:48;6.13;;;5.87;;
6985;SDS011;3533;51.246;6.850;2022-08-21T02:13:15;6.03;;;5.77;;
6985;SDS011;3533;51.246;6.850;2022-08-21T02:15:41;6.40;;;6.00;;
6985;SDS011;3533;51.246;6.850;2022-08-21T02:18:07;6.07;;;5.77;;
6985;SDS011;3533;51.246;6.850;2022-08-21T02:20:37;6.10;;;5.80;;
6985;SDS011;3533;51.246;6.850;2022-08-21T02:23:08;6.37;;;6.07;;
6985;SDS011;3533;51.246;6.850;2022-08-21T02:25:35;6.60;;;5.93;;
6985;SDS011;3533;51.246;6.850;2022-08-21T02:28:05;5.93;;;5.63;;
6985;SDS011;3533;51.246;6.850;2022-08-21T02:30:34;6.50;;;6.10;;
6985;SDS011;3533;51.246;6.850;2022-08-21T02:33:05;6.63;;;6.30;;
6985;SDS011;3533;51.246;6.850;2022-08-21T02:35:31;6.27;;;5.93;;
6985;SDS011;3533;51.246;6.850;2022-08-21T02:37:58;6.20;;;5.90;;
6985;SDS011;3533;51.246;6.850;2022-08-21T02:40:27;7.10;;;6.43;;
6985;SDS011;3533;51.246;6.850;2022-08-21T02:42:56;6.53;;;6.23;;
6985;SDS011;3533;51.246;6.850;2022-08-21T02:45:26;6.90;;;6.50;;
6985;SDS011;3533;51.246;6.850;2022-08-21T02:47:54;6.23;;;5.90;;
6985;SDS011;3533;51.246;6.850;2022-08-21T02:50:26;6.33;;;6.03;;
6985;SDS011;3533;51.246;6.850;2022-08-21T02:52:54;6.70;;;6.20;;
6985;SDS011;3533;51.246;6.850;2022-08-21T02:55:21;6.50;;;6.20;;
6985;SDS011;3533;51.246;6.850;2022-08-21T02:57:48;5.93;;;5.63;;
6985;SDS011;3533;51.246;6.850;2022-08-21T03:00:15;7.23;;;6.47;;
6985;SDS011;3533;51.246;6.850;2022-08-21T03:02:41;6.40;;;6.00;;
6985;SDS011;3533;51.246;6.850;2022-08-21T03:05:08;6.37;;;6.07;;
6985;SDS011;3533;51.246;6.850;2022-08-21T03:07:35;7.27;;;6.70;;
6985;SDS011;3533;51.246;6.850;2022-08-21T03:10:02;6.63;;;6.27;;
6985;SDS011;3533;51.246;6.850;2022-08-21T03:12:31;6.37;;;5.87;;
6985;SDS011;3533;51.246;6.850;2022-08-21T03:14:57;6.90;;;6.40;;
6985;SDS011;3533;51.246;6.850;2022-08-21T03:17:23;7.17;;;6.70;;
6985;SDS011;3533;51.246;6.850;2022-08-21T03:19:49;6.03;;;5.67;;
6985;SDS011;3533;51.246;6.850;2022-08-21T03:22:15;6.50;;;6.03;;
6985;SDS011;3533;51.246;6.850;2022-08-21T03:24:41;8.20;;;6.30;;
6985;SDS011;3533;51.246;6.850;2022-08-21T03:27:06;7.30;;;6.80;;
6985;SDS011;3533;51.246;6.850;2022-08-21T03:29:32;6.90;;;6.43;;
6985;SDS011;3533;51.246;6.850;2022-08-21T03:31:57;6.33;;;5.93;;
6985;SDS011;3533;51.246;6.850;2022-08-21T03:34:23;7.50;;;6.80;;
6985;SDS011;3533;51.246;6.850;2022-08-21T03:36:49;7.00;;;6.50;;
6985;SDS011;3533;51.246;6.850;2022-08-21T03:39:15;6.30;;;5.93;;
6985;SDS011;3533;51.246;6.850;2022-08-21T03:41:42;6.63;;;6.13;;
6985;SDS011;3533;51.246;6.850;2022-08-21T03:44:07;6.20;;;5.90;;
6985;SDS011;3533;51.246;6.850;2022-08-21T03:46:33;6.80;;;6.20;;
6985;SDS011;3533;51.246;6.850;2022-08-21T03:48:59;6.70;;;6.30;;
6985;SDS011;3533;51.246;6.850;2022-08-21T03:51:24;7.73;;;7.03;;
6985;SDS011;3533;51.246;6.850;2022-08-21T03:53:50;6.90;;;6.50;;
6985;SDS011;3533;51.246;6.850;2022-08-21T03:56:16;7.07;;;6.60;;
6985;SDS011;3533;51.246;6.850;2022-08-21T03:58:42;6.90;;;6.60;;
6985;SDS011;3533;51.246;6.850;2022-08-21T04:01:09;6.77;;;6.43;;
6985;SDS011;3533;51.246;6.850;2022-08-21T04:03:35;6.47;;;6.17;;
6985;SDS011;3533;51.246;6.850;2022-08-21T04:06:02;6.40;;;6.00;;
6985;SDS011;3533;51.246;6.850;2022-08-21T04:08:28;6.63;;;6.00;;
6985;SDS011;3533;51.246;6.850;2022-08-21T04:10:55;6.83;;;6.47;;
6985;SDS011;3533;51.246;6.850;2022-08-21T04:13:23;6.90;;;6.50;;
6985;SDS011;3533;51.246;6.850;2022-08-21T04:15:49;6.40;;;6.10;;
6985;SDS011;3533;51.246;6.850;2022-08-21T04:18:15;6.50;;;6.10;;
6985;SDS011;3533;51.246;6.850;2022-08-21T04:20:42;7.30;;;6.70;;
6985;SDS011;3533;51.246;6.850;2022-08-21T04:23:09;6.73;;;6.40;;
6985;SDS011;3533;51.246;6.850;2022-08-21T04:25:35;7.57;;;6.80;;
6985;SDS011;3533;51.246;6.850;2022-08-21T04:28:01;6.40;;;6.00;;
6985;SDS011;3533;51.246;6.850;2022-08-21T04:30:27;9.37;;;6.90;;
6985;SDS011;3533;51.246;6.850;2022-08-21T04:32:52;7.23;;;6.63;;
6985;SDS011;3533;51.246;6.850;2022-08-21T04:35:19;6.83;;;6.30;;
6985;SDS011;3533;51.246;6.850;2022-08-21T04:37:46;6.70;;;6.30;;
6985;SDS011;3533;51.246;6.850;2022-08-21T04:40:13;5.50;;;5.20;;
6985;SDS011;3533;51.246;6.850;2022-08-21T04:42:46;6.23;;;5.83;;
6985;SDS011;3533;51.246;6.850;2022-08-21T04:45:18;6.93;;;6.40;;
6985;SDS011;3533;51.246;6.850;2022-08-21T04:47:49;6.50;;;5.97;;
6985;SDS011;3533;51.246;6.850;2022-08-21T04:50:16;6.63;;;6.10;;
6985;SDS011;3533;51.246;6.850;2022-08-21T04:52:41;6.37;;;5.97;;
6985;SDS011;3533;51.246;6.850;2022-08-21T04:55:08;6.20;;;5.90;;
6985;SDS011;3533;51.246;6.850;2022-08-21T04:57:34;6.77;;;6.17;;
6985;SDS011;3533;51.246;6.850;2022-08-21T05:00:00;6.80;;;6.23;;
6985;SDS011;3533;51.246;6.850;2022-08-21T05:02:26;6.80;;;6.50;;
6985;SDS011;3533;51.246;6.850;2022-08-21T05:04:52;6.37;;;5.87;;
6985;SDS011;3533;51.246;6.850;2022-08-21T05:07:22;6.27;;;5.77;;
6985;SDS011;3533;51.246;6.850;2022-08-21T05:09:50;5.80;;;5.50;;
6985;SDS011;3533;51.246;6.850;2022-08-21T05:12:16;7.37;;;6.23;;
6985;SDS011;3533;51.246;6.850;2022-08-21T05:14:42;5.40;;;5.10;;
6985;SDS011;3533;51.246;6.850;2022-08-21T05:17:08;6.80;;;6.40;;
6985;SDS011;3533;51.246;6.850;2022-08-21T05:19:34;6.20;;;5.60;;
6985;SDS011;3533;51.246;6.850;2022-08-21T05:22:00;6.13;;;5.73;;
6985;SDS011;3533;51.246;6.850;2022-08-21T05:24:26;6.10;;;5.70;;
6985;SDS011;3533;51.246;6.850;2022-08-21T05:26:52;5.90;;;5.60;;
6985;SDS011;3533;51.246;6.850;2022-08-21T05:29:18;5.97;;;5.67;;
6985;SDS011;3533;51.246;6.850;2022-08-21T05:31:45;5.50;;;5.20;;
6985;SDS011;3533;51.246;6.850;2022-08-21T05:34:22;6.03;;;5.63;;
6985;SDS011;3533;51.246;6.850;2022-08-21T05:36:49;6.40;;;6.00;;
6985;SDS011;3533;51.246;6.850;2022-08-21T05:39:15;6.10;;;5.73;;
6985;SDS011;3533;51.246;6.850;2022-08-21T05:41:41;6.63;;;6.23;;
6985;SDS011;3533;51.246;6.850;2022-08-21T05:44:07;6.53;;;6.13;;
6985;SDS011;3533;51.246;6.850;2022-08-21T05:46:32;5.73;;;5.27;;
6985;SDS011;3533;51.246;6.850;2022-08-21T05:48:58;5.40;;;5.10;;
6985;SDS011;3533;51.246;6.850;2022-08-21T05:51:23;5.93;;;5.40;;
6985;SDS011;3533;51.246;6.850;2022-08-21T05:53:49;5.60;;;5.20;;
6985;SDS011;3533;51.246;6.850;2022-08-21T05:56:15;5.57;;;5.27;;
6985;SDS011;3533;51.246;6.850;2022-08-21T05:58:41;6.30;;;5.90;;
6985;SDS011;3533;51.246;6.850;2022-08-21T06:01:08;6.10;;;5.70;;
6985;SDS011;3533;51.246;6.850;2022-08-21T06:03:35;5.20;;;4.90;;
6985;SDS011;3533;51.246;6.850;2022-08-21T06:06:03;5.83;;;5.40;;
6985;SDS011;3533;51.246;6.850;2022-08-21T06:08:29;5.33;;;5.03;;
6985;SDS011;3533;51.246;6.850;2022-08-21T06:10:56;6.90;;;5.20;;
6985;SDS011;3533;51.246;6.850;2022-08-21T06:13:23;5.37;;;5.07;;
6985;SDS011;3533;51.246;6.850;2022-08-21T06:15:50;4.47;;;4.20;;
6985;SDS011;3533;51.246;6.850;2022-08-21T06:18:26;5.30;;;5.00;;
6985;SDS011;3533;51.246;6.850;2022-08-21T06:20:52;5.33;;;4.93;;
6985;SDS011;3533;51.246;6.850;2022-08-21T06:23:17;5.10;;;4.80;;
6985;SDS011;3533;51.246;6.850;2022-08-21T06:25:43;5.03;;;4.73;;
6985;SDS011;3533;51.246;6.850;2022-08-21T06:28:09;4.80;;;4.60;;
6985;SDS011;3533;51.246;6.850;2022-08-21T06:30:36;4.90;;;4.60;;
6985;SDS011;3533;51.246;6.850;2022-08-21T06:33:02;5.00;;;4.80;;
6985;SDS011;3533;51.246;6.850;2022-08-21T06:35:28;4.30;;;4.10;;
6985;SDS011;3533;51.246;6.850;2022-08-21T06:37:55;5.23;;;4.93;;
6985;SDS011;3533;51.246;6.850;2022-08-21T06:40:22;4.60;;;4.40;;
6985;SDS011;3533;51.246;6.850;2022-08-21T06:42:48;4.23;;;4.03;;
6985;SDS011;3533;51.246;6.850;2022-08-21T06:45:14;3.97;;;3.77;;
6985;SDS011;3533;51.246;6.850;2022-08-21T06:47:40;4.60;;;4.40;;
6985;SDS011;3533;51.246;6.850;2022-08-21T06:50:06;4.80;;;4.50;;
6985;SDS011;3533;51.246;6.850;2022-08-21T06:52:34;4.80;;;4.50;;
6985;SDS011;3533;51.246;6.850;2022-08-21T06:55:00;4.73;;;4.33;;
6985;SDS011;3533;51.246;6.850;2022-08-21T06:57:26;4.17;;;3.97;;
6985;SDS011;3533;51.246;6.850;2022-08-21T06:59:52;4.17;;;3.87;;
6985;SDS011;3533;51.246;6.850;2022-08-21T07:02:17;4.57;;;4.20;;
6985;SDS011;3533;51.246;6.850;2022-08-21T07:04:43;4.80;;;4.50;;
6985;SDS011;3533;51.246;6.850;2022-08-21T07:07:09;4.80;;;4.50;;
6985;SDS011;3533;51.246;6.850;2022-08-21T07:09:34;4.07;;;3.87;;
6985;SDS011;3533;51.246;6.850;2022-08-21T07:12:00;6.50;;;4.40;;
6985;SDS011;3533;51.246;6.850;2022-08-21T07:14:27;4.10;;;3.90;;
6985;SDS011;3533;51.246;6.850;2022-08-21T07:16:53;4.10;;;3.80;;
6985;SDS011;3533;51.246;6.850;2022-08-21T07:19:19;4.20;;;4.00;;
6985;SDS011;3533;51.246;6.850;2022-08-21T07:21:45;4.00;;;3.70;;
6985;SDS011;3533;51.246;6.850;2022-08-21T07:24:11;4.63;;;4.20;;
6985;SDS011;3533;51.246;6.850;2022-08-21T07:26:37;4.00;;;3.80;;
6985;SDS011;3533;51.246;6.850;2022-08-21T07:29:03;4.43;;;4.20;;
6985;SDS011;3533;51.246;6.850;2022-08-21T07:31:29;3.70;;;3.50;;
6985;SDS011;3533;51.246;6.850;2022-08-21T07:33:55;3.70;;;3.50;;
6985;SDS011;3533;51.246;6.850;2022-08-21T07:36:21;3.80;;;3.60;;
6985;SDS011;3533;51.246;6.850;2022-08-21T07:38:46;3.60;;;3.40;;
6985;SDS011;3533;51.246;6.850;2022-08-21T07:41:14;3.57;;;3.37;;
6985;SDS011;3533;51.246;6.850;2022-08-21T07:43:45;3.90;;;3.70;;
6985;SDS011;3533;51.246;6.850;2022-08-21T07:46:11;4.37;;;3.70;;
6985;SDS011;3533;51.246;6.850;2022-08-21T07:48:37;3.97;;;3.77;;
6985;SDS011;3533;51.246;6.850;2022-08-21T07:51:05;4.00;;;3.80;;
6985;SDS011;3533;51.246;6.850;2022-08-21T07:53:33;3.30;;;3.10;;
6985;SDS011;3533;51.246;6.850;2022-08-21T07:55:59;3.70;;;3.50;;
6985;SDS011;3533;51.246;6.850;2022-08-21T07:58:25;3.23;;;3.10;;
6985;SDS011;3533;51.246;6.850;2022-08-21T08:00:50;3.43;;;3.23;;
6985;SDS011;3533;51.246;6.850;2022-08-21T08:03:16;3.50;;;3.30;;
6985;SDS011;3533;51.246;6.850;2022-08-21T08:05:42;3.93;;;3.63;;
6985;SDS011;3533;51.246;6.850;2022-08-21T08:08:08;3.47;;;3.27;;
6985;SDS011;3533;51.246;6.850;2022-08-21T08:10:34;3.33;;;3.13;;
6985;SDS011;3533;51.246;6.850;2022-08-21T08:13:00;3.40;;;3.20;;
6985;SDS011;3533;51.246;6.850;2022-08-21T08:15:26;5.27;;;3.30;;
6985;SDS011;3533;51.246;6.850;2022-08-21T08:17:53;3.40;;;3.20;;
6985;SDS011;3533;51.246;6.850;2022-08-21T08:20:20;3.33;;;3.03;;
6985;SDS011;3533;51.246;6.850;2022-08-21T08:22:47;3.20;;;3.00;;
6985;SDS011;3533;51.246;6.850;2022-08-21T08:25:14;3.40;;;3.10;;
6985;SDS011;3533;51.246;6.850;2022-08-21T08:27:42;3.67;;;3.37;;
6985;SDS011;3533;51.246;6.850;2022-08-21T08:30:08;5.03;;;3.60;;
6985;SDS011;3533;51.246;6.850;2022-08-21T08:32:36;3.20;;;3.00;;
6985;SDS011;3533;51.246;6.850;2022-08-21T08:35:02;3.07;;;2.87;;
6985;SDS011;3533;51.246;6.850;2022-08-21T08:37:29;2.80;;;2.70;;
6985;SDS011;3533;51.246;6.850;2022-08-21T08:39:54;2.93;;;2.73;;
6985;SDS011;3533;51.246;6.850;2022-08-21T08:44:55;3.00;;;2.80;;
6985;SDS011;3533;51.246;6.850;2022-08-21T08:47:26;2.53;;;2.43;;
6985;SDS011;3533;51.246;6.850;2022-08-21T08:50:07;2.50;;;2.40;;
6985;SDS011;3533;51.246;6.850;2022-08-21T08:53:21;2.80;;;2.70;;
6985;SDS011;3533;51.246;6.850;2022-08-21T08:55:36;2.63;;;2.50;;
6985;SDS011;3533;51.246;6.850;2022-08-21T08:58:05;2.80;;;2.70;;
6985;SDS011;3533;51.246;6.850;2022-08-21T09:00:33;2.87;;;2.67;;
6985;SDS011;3533;51.246;6.850;2022-08-21T09:02:59;2.30;;;2.20;;
6985;SDS011;3533;51.246;6.850;2022-08-21T09:08:23;3.50;;;3.20;;
6985;SDS011;3533;51.246;6.850;2022-08-21T09:13:35;2.77;;;2.67;;
6985;SDS011;3533;51.246;6.850;2022-08-21T09:16:17;2.50;;;2.40;;
6985;SDS011;3533;51.246;6.850;2022-08-21T09:19:11;2.90;;;2.70;;
6985;SDS011;3533;51.246;6.850;2022-08-21T09:22:19;2.27;;;2.13;;
6985;SDS011;3533;51.246;6.850;2022-08-21T09:27:37;2.20;;;2.10;;
6985;SDS011;3533;51.246;6.850;2022-08-21T09:30:03;2.43;;;2.23;;
6985;SDS011;3533;51.246;6.850;2022-08-21T09:32:31;2.47;;;2.27;;
6985;SDS011;3533;51.246;6.850;2022-08-21T09:35:07;2.03;;;1.93;;
6985;SDS011;3533;51.246;6.850;2022-08-21T09:37:35;2.40;;;2.30;;
6985;SDS011;3533;51.246;6.850;2022-08-21T09:43:03;2.00;;;1.90;;
6985;SDS011;3533;51.246;6.850;2022-08-21T09:45:48;2.20;;;2.10;;
6985;SDS011;3533;51.246;6.850;2022-08-21T09:48:25;2.17;;;2.07;;
6985;SDS011;3533;51.246;6.850;2022-08-21T09:50:51;2.30;;;2.20;;
6985;SDS011;3533;51.246;6.850;2022-08-21T09:53:26;2.47;;;2.27;;
6985;SDS011;3533;51.246;6.850;2022-08-21T09:55:54;2.10;;;2.00;;
6985;SDS011;3533;51.246;6.850;2022-08-21T09:58:41;2.60;;;2.50;;
6985;SDS011;3533;51.246;6.850;2022-08-21T10:01:13;1.67;;;1.57;;
6985;SDS011;3533;51.246;6.850;2022-08-21T10:03:41;1.90;;;1.80;;
6985;SDS011;3533;51.246;6.850;2022-08-21T10:06:07;2.00;;;1.90;;
6985;SDS011;3533;51.246;6.850;2022-08-21T10:08:36;2.20;;;2.10;;
6985;SDS011;3533;51.246;6.850;2022-08-21T10:11:10;1.80;;;1.70;;
6985;SDS011;3533;51.246;6.850;2022-08-21T10:13:47;2.10;;;2.00;;
6985;SDS011;3533;51.246;6.850;2022-08-21T10:27:20;1.80;;;1.70;;
6985;SDS011;3533;51.246;6.850;2022-08-21T10:29:53;2.17;;;2.00;;
6985;SDS011;3533;51.246;6.850;2022-08-21T10:32:27;2.27;;;2.17;;
6985;SDS011;3533;51.246;6.850;2022-08-21T10:35:26;1.93;;;1.83;;
6985;SDS011;3533;51.246;6.850;2022-08-21T10:43:50;2.43;;;2.20;;
6985;SDS011;3533;51.246;6.850;2022-08-21T10:51:56;1.90;;;1.80;;
6985;SDS011;3533;51.246;6.850;2022-08-21T10:54:56;1.70;;;1.60;;
6985;SDS011;3533;51.246;6.850;2022-08-21T10:57:49;1.67;;;1.57;;
6985;SDS011;3533;51.246;6.850;2022-08-21T11:00:34;1.90;;;1.80;;
6985;SDS011;3533;51.246;6.850;2022-08-21T11:04:11;1.70;;;1.60;;
6985;SDS011;3533;51.246;6.850;2022-08-21T11:06:16;1.60;;;1.50;;
6985;SDS011;3533;51.246;6.850;2022-08-21T11:08:48;2.17;;;2.07;;
6985;SDS011;3533;51.246;6.850;2022-08-21T11:11:34;1.67;;;1.57;;
6985;SDS011;3533;51.246;6.850;2022-08-21T11:14:28;2.03;;;1.83;;
6985;SDS011;3533;51.246;6.850;2022-08-21T11:17:02;1.63;;;1.53;;
6985;SDS011;3533;51.246;6.850;2022-08-21T11:22:07;1.77;;;1.67;;
6985;SDS011;3533;51.246;6.850;2022-08-21T11:24:54;2.07;;;1.97;;
6985;SDS011;3533;51.246;6.850;2022-08-21T11:27:33;2.10;;;1.67;;
6985;SDS011;3533;51.246;6.850;2022-08-21T11:30:05;1.70;;;1.60;;
6985;SDS011;3533;51.246;6.850;2022-08-21T11:38:42;1.70;;;1.60;;
6985;SDS011;3533;51.246;6.850;2022-08-21T11:46:28;2.00;;;1.90;;
6985;SDS011;3533;51.246;6.850;2022-08-21T11:49:06;1.80;;;1.70;;
6985;SDS011;3533;51.246;6.850;2022-08-21T11:52:13;1.73;;;1.63;;
6985;SDS011;3533;51.246;6.850;2022-08-21T11:54:57;1.90;;;1.80;;
6985;SDS011;3533;51.246;6.850;2022-08-21T12:02:38;1.73;;;1.63;;
6985;SDS011;3533;51.246;6.850;2022-08-21T12:05:11;1.73;;;1.63;;
6985;SDS011;3533;51.246;6.850;2022-08-21T12:08:04;1.87;;;1.77;;
6985;SDS011;3533;51.246;6.850;2022-08-21T12:10:45;1.60;;;1.50;;
6985;SDS011;3533;51.246;6.850;2022-08-21T12:13:24;1.47;;;1.37;;
6985;SDS011;3533;51.246;6.850;2022-08-21T12:15:52;1.60;;;1.50;;
6985;SDS011;3533;51.246;6.850;2022-08-21T12:18:30;1.90;;;1.80;;
6985;SDS011;3533;51.246;6.850;2022-08-21T12:20:58;1.83;;;1.73;;
6985;SDS011;3533;51.246;6.850;2022-08-21T12:23:49;1.80;;;1.70;;
6985;SDS011;3533;51.246;6.850;2022-08-21T12:26:51;1.50;;;1.40;;
6985;SDS011;3533;51.246;6.850;2022-08-21T12:29:26;2.00;;;1.80;;
6985;SDS011;3533;51.246;6.850;2022-08-21T12:32:04;1.73;;;1.63;;
6985;SDS011;3533;51.246;6.850;2022-08-21T12:34:51;1.57;;;1.47;;
6985;SDS011;3533;51.246;6.850;2022-08-21T12:37:21;1.67;;;1.57;;
6985;SDS011;3533;51.246;6.850;2022-08-21T12:39:52;1.60;;;1.50;;
6985;SDS011;3533;51.246;6.850;2022-08-21T12:42:21;1.80;;;1.70;;
6985;SDS011;3533;51.246;6.850;2022-08-21T12:44:50;1.87;;;1.77;;
6985;SDS011;3533;51.246;6.850;2022-08-21T12:47:32;1.90;;;1.80;;
6985;SDS011;3533;51.246;6.850;2022-08-21T12:52:51;1.53;;;1.43;;
6985;SDS011;3533;51.246;6.850;2022-08-21T12:55:28;1.97;;;1.70;;
6985;SDS011;3533;51.246;6.850;2022-08-21T12:57:56;1.50;;;1.40;;
6985;SDS011;3533;51.246;6.850;2022-08-21T13:00:24;1.80;;;1.70;;
6985;SDS011;3533;51.246;6.850;2022-08-21T13:02:52;2.03;;;1.93;;
6985;SDS011;3533;51.246;6.850;2022-08-21T13:05:23;1.50;;;1.40;;
6985;SDS011;3533;51.246;6.850;2022-08-21T13:07:58;2.03;;;1.93;;
6985;SDS011;3533;51.246;6.850;2022-08-21T13:10:28;1.70;;;1.60;;
6985;SDS011;3533;51.246;6.850;2022-08-21T13:12:57;1.83;;;1.73;;
6985;SDS011;3533;51.246;6.850;2022-08-21T13:15:34;2.17;;;1.80;;
6985;SDS011;3533;51.246;6.850;2022-08-21T13:18:03;1.53;;;1.43;;
6985;SDS011;3533;51.246;6.850;2022-08-21T13:20:39;1.60;;;1.50;;
6985;SDS011;3533;51.246;6.850;2022-08-21T13:23:29;1.50;;;1.40;;
6985;SDS011;3533;51.246;6.850;2022-08-21T13:25:54;1.80;;;1.70;;
6985;SDS011;3533;51.246;6.850;2022-08-21T13:28:21;1.93;;;1.83;;
6985;SDS011;3533;51.246;6.850;2022-08-21T13:30:48;1.60;;;1.50;;
6985;SDS011;3533;51.246;6.850;2022-08-21T13:33:16;1.67;;;1.57;;
6985;SDS011;3533;51.246;6.850;2022-08-21T13:38:22;1.70;;;1.60;;
6985;SDS011;3533;51.246;6.850;2022-08-21T13:40:52;1.70;;;1.60;;
6985;SDS011;3533;51.246;6.850;2022-08-21T13:43:24;1.77;;;1.67;;
6985;SDS011;3533;51.246;6.850;2022-08-21T13:45:53;1.80;;;1.70;;
6985;SDS011;3533;51.246;6.850;2022-08-21T13:48:21;1.90;;;1.80;;
6985;SDS011;3533;51.246;6.850;2022-08-21T13:50:50;2.07;;;1.90;;
6985;SDS011;3533;51.246;6.850;2022-08-21T13:53:35;1.77;;;1.67;;
6985;SDS011;3533;51.246;6.850;2022-08-21T13:56:22;1.53;;;1.43;;
6985;SDS011;3533;51.246;6.850;2022-08-21T13:58:59;1.60;;;1.50;;
6985;SDS011;3533;51.246;6.850;2022-08-21T14:01:28;1.80;;;1.70;;
6985;SDS011;3533;51.246;6.850;2022-08-21T14:03:57;1.90;;;1.80;;
6985;SDS011;3533;51.246;6.850;2022-08-21T14:06:33;2.00;;;1.90;;
6985;SDS011;3533;51.246;6.850;2022-08-21T14:09:12;2.00;;;1.90;;
6985;SDS011;3533;51.246;6.850;2022-08-21T14:11:59;1.80;;;1.70;;
6985;SDS011;3533;51.246;6.850;2022-08-21T14:14:28;2.00;;;1.90;;
6985;SDS011;3533;51.246;6.850;2022-08-21T14:17:00;2.30;;;1.73;;
6985;SDS011;3533;51.246;6.850;2022-08-21T14:19:40;1.60;;;1.50;;
6985;SDS011;3533;51.246;6.850;2022-08-21T14:22:30;1.73;;;1.63;;
6985;SDS011;3533;51.246;6.850;2022-08-21T14:27:31;1.57;;;1.47;;
6985;SDS011;3533;51.246;6.850;2022-08-21T14:30:02;1.70;;;1.60;;
6985;SDS011;3533;51.246;6.850;2022-08-21T14:32:41;1.70;;;1.60;;
6985;SDS011;3533;51.246;6.850;2022-08-21T14:35:07;2.20;;;1.77;;
6985;SDS011;3533;51.246;6.850;2022-08-21T14:37:33;1.67;;;1.57;;
6985;SDS011;3533;51.246;6.850;2022-08-21T14:39:59;1.70;;;1.60;;
6985;SDS011;3533;51.246;6.850;2022-08-21T14:42:26;1.70;;;1.60;;
6985;SDS011;3533;51.246;6.850;2022-08-21T14:44:53;2.03;;;1.93;;
6985;SDS011;3533;51.246;6.850;2022-08-21T14:47:24;1.80;;;1.70;;
6985;SDS011;3533;51.246;6.850;2022-08-21T14:49:50;1.67;;;1.57;;
6985;SDS011;3533;51.246;6.850;2022-08-21T14:52:18;1.63;;;1.53;;
6985;SDS011;3533;51.246;6.850;2022-08-21T14:54:44;1.83;;;1.73;;
6985;SDS011;3533;51.246;6.850;2022-08-21T14:57:11;1.80;;;1.70;;
6985;SDS011;3533;51.246;6.850;2022-08-21T14:59:37;1.90;;;1.80;;
6985;SDS011;3533;51.246;6.850;2022-08-21T15:02:04;1.63;;;1.53;;
6985;SDS011;3533;51.246;6.850;2022-08-21T15:04:30;2.07;;;1.97;;
6985;SDS011;3533;51.246;6.850;2022-08-21T15:06:56;1.57;;;1.47;;
6985;SDS011;3533;51.246;6.850;2022-08-21T15:09:22;1.80;;;1.70;;
6985;SDS011;3533;51.246;6.850;2022-08-21T15:11:48;1.70;;;1.60;;
6985;SDS011;3533;51.246;6.850;2022-08-21T15:14:27;1.60;;;1.50;;
6985;SDS011;3533;51.246;6.850;2022-08-21T15:16:54;1.90;;;1.80;;
6985;SDS011;3533;51.246;6.850;2022-08-21T15:19:21;2.40;;;2.20;;
6985;SDS011;3533;51.246;6.850;2022-08-21T15:21:47;1.77;;;1.67;;
6985;SDS011;3533;51.246;6.850;2022-08-21T15:24:13;1.83;;;1.73;;
6985;SDS011;3533;51.246;6.850;2022-08-21T15:26:39;2.17;;;2.07;;
6985;SDS011;3533;51.246;6.850;2022-08-21T15:29:06;1.87;;;1.63;;
6985;SDS011;3533;51.246;6.850;2022-08-21T15:31:33;1.70;;;1.60;;
6985;SDS011;3533;51.246;6.850;2022-08-21T15:34:00;1.50;;;1.40;;
6985;SDS011;3533;51.246;6.850;2022-08-21T15:36:25;1.73;;;1.63;;
6985;SDS011;3533;51.246;6.850;2022-08-21T15:38:51;1.70;;;1.60;;
6985;SDS011;3533;51.246;6.850;2022-08-21T15:41:17;1.70;;;1.60;;
6985;SDS011;3533;51.246;6.850;2022-08-21T15:43:47;1.60;;;1.50;;
6985;SDS011;3533;51.246;6.850;2022-08-21T15:46:16;2.03;;;1.83;;
6985;SDS011;3533;51.246;6.850;2022-08-21T15:48:43;2.60;;;2.40;;
6985;SDS011;3533;51.246;6.850;2022-08-21T15:51:11;1.80;;;1.70;;
6985;SDS011;3533;51.246;6.850;2022-08-21T15:53:37;2.10;;;2.00;;
6985;SDS011;3533;51.246;6.850;2022-08-21T15:56:06;2.30;;;2.17;;
6985;SDS011;3533;51.246;6.850;2022-08-21T15:58:36;1.57;;;1.47;;
6985;SDS011;3533;51.246;6.850;2022-08-21T16:01:03;1.50;;;1.40;;
6985;SDS011;3533;51.246;6.850;2022-08-21T16:03:29;2.60;;;1.77;;
6985;SDS011;3533;51.246;6.850;2022-08-21T16:05:54;1.70;;;1.60;;
6985;SDS011;3533;51.246;6.850;2022-08-21T16:08:22;2.73;;;1.87;;
6985;SDS011;3533;51.246;6.850;2022-08-21T16:10:49;4.03;;;1.87;;
6985;SDS011;3533;51.246;6.850;2022-08-21T16:13:23;1.97;;;1.87;;
6985;SDS011;3533;51.246;6.850;2022-08-21T16:15:52;2.10;;;1.80;;
6985;SDS011;3533;51.246;6.850;2022-08-21T16:18:18;3.83;;;1.97;;
6985;SDS011;3533;51.246;6.850;2022-08-21T16:20:44;1.97;;;1.87;;
6985;SDS011;3533;51.246;6.850;2022-08-21T16:23:10;1.90;;;1.80;;
6985;SDS011;3533;51.246;6.850;2022-08-21T16:25:36;2.60;;;1.70;;
6985;SDS011;3533;51.246;6.850;2022-08-21T16:28:05;1.90;;;1.80;;
6985;SDS011;3533;51.246;6.850;2022-08-21T16:30:32;2.17;;;2.00;;
6985;SDS011;3533;51.246;6.850;2022-08-21T16:32:59;1.93;;;1.80;;